createdAt,value
2022-10-22T00:02:08.221Z,13.23
2022-10-22T00:04:36.676Z,12.98
2022-10-22T00:07:04.651Z,12.90
2022-10-22T00:09:36.488Z,13.57
2022-10-22T00:12:05.036Z,15.63
2022-10-22T00:14:33.028Z,13.27
2022-10-22T00:17:06.969Z,12.50
2022-10-22T00:19:41.985Z,14.20
2022-10-22T00:22:14.596Z,11.33
2022-10-22T00:24:42.650Z,16.60
2022-10-22T00:27:12.569Z,12.63
2022-10-22T00:29:44.633Z,12.98
2022-10-22T00:32:12.404Z,11.80
2022-10-22T00:34:41.572Z,10.27
2022-10-22T00:37:13.484Z,13.07
2022-10-22T00:39:41.338Z,10.60
2022-10-22T00:42:13.679Z,15.07
2022-10-22T00:45:09.283Z,13.07
2022-10-22T00:47:42.596Z,12.93
2022-10-22T00:50:18.957Z,11.40
2022-10-22T00:52:47.587Z,14.33
2022-10-22T00:55:18.509Z,10.23
2022-10-22T00:57:49.233Z,11.77
2022-10-22T01:00:18.231Z,10.27
2022-10-22T01:02:49.094Z,10.43
2022-10-22T01:05:21.302Z,9.93
2022-10-22T01:08:03.473Z,10.00
2022-10-22T01:10:50.690Z,9.70
2022-10-22T01:13:30.291Z,12.73
2022-10-22T01:16:09.360Z,10.18
2022-10-22T01:18:48.277Z,11.80
2022-10-22T01:21:34.061Z,8.60
2022-10-22T01:24:22.040Z,13.30
2022-10-22T01:27:13.165Z,15.30
2022-10-22T01:29:49.190Z,11.57
2022-10-22T01:32:22.071Z,9.87
2022-10-22T01:34:55.596Z,13.23
2022-10-22T01:37:27.010Z,12.23
2022-10-22T01:39:58.257Z,9.90
2022-10-22T01:42:26.148Z,9.37
2022-10-22T01:44:57.347Z,8.60
2022-10-22T01:47:40.992Z,10.07
2022-10-22T01:50:47.829Z,10.13
2022-10-22T01:53:34.032Z,8.10
2022-10-22T01:56:25.584Z,8.13
2022-10-22T01:59:05.788Z,7.87
2022-10-22T02:01:43.353Z,8.45
2022-10-22T02:04:18.417Z,9.90
2022-10-22T02:06:51.281Z,7.93
2022-10-22T02:09:23.721Z,9.20
2022-10-22T02:11:52.699Z,10.43
2022-10-22T02:14:21.973Z,6.93
2022-10-22T02:16:53.443Z,8.60
2022-10-22T02:19:26.814Z,7.93
2022-10-22T02:21:55.818Z,9.93
2022-10-22T02:24:26.848Z,10.67
2022-10-22T02:27:04.164Z,8.20
2022-10-22T02:29:39.676Z,8.13
2022-10-22T02:32:14.344Z,8.20
2022-10-22T02:34:46.078Z,8.23
2022-10-22T02:37:17.508Z,7.93
2022-10-22T02:39:48.296Z,8.83
2022-10-22T02:42:16.187Z,6.93
2022-10-22T02:44:46.002Z,10.60
2022-10-22T02:47:17.082Z,8.93
2022-10-22T02:49:49.238Z,7.97
2022-10-22T02:52:17.005Z,8.77
2022-10-22T02:54:44.817Z,5.90
2022-10-22T02:57:15.007Z,7.73
2022-10-22T02:59:42.924Z,8.80
2022-10-22T03:02:10.740Z,6.73
2022-10-22T03:04:43.636Z,9.10
2022-10-22T03:07:11.561Z,8.80
2022-10-22T03:09:39.366Z,6.47
2022-10-22T03:12:11.458Z,9.07
2022-10-22T03:14:39.222Z,9.80
2022-10-22T03:17:06.985Z,6.40
2022-10-22T03:19:39.165Z,7.07
2022-10-22T03:22:12.525Z,8.00
2022-10-22T03:24:47.377Z,6.27
2022-10-22T03:27:17.882Z,7.00
2022-10-22T03:29:51.291Z,6.28
2022-10-22T03:32:19.092Z,6.30
2022-10-22T03:34:47.013Z,6.57
2022-10-22T03:37:20.361Z,6.47
2022-10-22T03:39:48.420Z,8.57
2022-10-22T03:42:17.280Z,6.80
2022-10-22T03:44:49.379Z,7.97
2022-10-22T03:47:17.338Z,8.80
2022-10-22T03:49:45.332Z,6.27
2022-10-22T03:52:19.223Z,6.93
2022-10-22T03:54:46.946Z,8.63
2022-10-22T03:57:14.819Z,7.17
2022-10-22T03:59:49.133Z,11.40
2022-10-22T04:02:16.919Z,7.13
2022-10-22T04:04:44.857Z,8.03
2022-10-22T04:07:14.777Z,7.33
2022-10-22T04:09:43.922Z,7.20
2022-10-22T04:12:11.699Z,7.33
2022-10-22T04:14:43.789Z,5.73
2022-10-22T04:17:11.615Z,6.87
2022-10-22T04:19:39.505Z,6.33
2022-10-22T04:22:11.469Z,7.13
2022-10-22T04:24:39.514Z,5.23
2022-10-22T04:27:08.742Z,6.67
2022-10-22T04:29:40.830Z,5.77
2022-10-22T04:32:08.644Z,8.00
2022-10-22T04:34:36.464Z,5.47
2022-10-22T04:37:08.462Z,6.73
2022-10-22T04:39:38.489Z,6.20
2022-10-22T04:42:06.431Z,7.05
2022-10-22T04:44:37.834Z,4.30
2022-10-22T04:47:07.972Z,5.97
2022-10-22T04:49:35.721Z,7.40
2022-10-22T04:52:05.532Z,4.87
2022-10-22T04:54:37.417Z,5.47
2022-10-22T04:57:05.413Z,7.53
2022-10-22T04:59:33.370Z,9.83
2022-10-22T05:02:06.591Z,6.17
2022-10-22T05:04:34.426Z,6.70
2022-10-22T05:07:02.234Z,10.20
2022-10-22T05:09:34.197Z,6.10
2022-10-22T05:12:01.916Z,7.03
2022-10-22T05:14:29.731Z,9.80
2022-10-22T05:17:02.428Z,6.07
2022-10-22T05:19:33.317Z,5.87
2022-10-22T05:22:06.645Z,8.73
2022-10-22T05:24:36.786Z,9.17
2022-10-22T05:27:06.904Z,5.68
2022-10-22T05:29:34.858Z,8.98
2022-10-22T05:32:02.666Z,7.27
2022-10-22T05:34:36.348Z,5.57
2022-10-22T05:37:04.256Z,5.60
2022-10-22T05:39:32.004Z,6.40
2022-10-22T05:42:02.010Z,7.43
2022-10-22T05:44:29.857Z,6.90
2022-10-22T05:46:57.713Z,6.73
2022-10-22T05:49:29.781Z,10.10
2022-10-22T05:51:58.928Z,5.30
2022-10-22T05:54:26.715Z,7.43
2022-10-22T05:56:58.728Z,7.60
2022-10-22T05:59:26.503Z,7.63
2022-10-22T06:01:54.276Z,5.47
2022-10-22T06:04:26.418Z,9.00
2022-10-22T06:06:54.715Z,5.83
2022-10-22T06:09:31.450Z,9.57
2022-10-22T06:11:59.885Z,9.10
2022-10-22T06:14:28.987Z,6.17
2022-10-22T06:17:02.788Z,10.43
2022-10-22T06:19:31.319Z,6.27
2022-10-22T06:21:59.087Z,7.77
2022-10-22T06:24:32.496Z,8.43
2022-10-22T06:27:00.426Z,9.80
2022-10-22T06:29:28.446Z,9.83
2022-10-22T06:31:58.569Z,9.93
2022-10-22T06:34:28.687Z,10.57
2022-10-22T06:36:56.455Z,8.70
2022-10-22T06:39:26.604Z,7.13
2022-10-22T06:41:57.622Z,9.98
2022-10-22T06:44:25.481Z,8.67
2022-10-22T06:46:56.245Z,12.20
2022-10-22T06:49:26.456Z,11.33
2022-10-22T06:51:55.700Z,12.18
2022-10-22T06:54:26.428Z,10.30
2022-10-22T06:56:57.868Z,11.00
2022-10-22T06:59:25.702Z,14.00
2022-10-22T07:01:55.400Z,13.17
2022-10-22T07:04:25.498Z,11.40
2022-10-22T07:06:55.990Z,12.07
2022-10-22T07:09:25.671Z,9.65
2022-10-22T07:11:57.186Z,13.65
2022-10-22T07:14:25.787Z,14.23
2022-10-22T07:16:55.549Z,9.93
2022-10-22T07:19:25.542Z,8.25
2022-10-22T07:21:53.362Z,6.95
2022-10-22T07:24:23.015Z,6.00
2022-10-22T07:26:53.130Z,7.53
2022-10-22T07:29:26.470Z,8.05
2022-10-22T07:31:54.403Z,7.00
2022-10-22T07:34:22.328Z,7.90
2022-10-22T07:36:50.556Z,7.50
2022-10-22T07:39:18.441Z,5.47
2022-10-22T07:41:46.231Z,6.97
2022-10-22T07:44:18.474Z,6.47
2022-10-22T07:46:48.991Z,9.27
2022-10-22T07:49:17.100Z,5.20
2022-10-22T07:51:46.920Z,9.27
2022-10-22T07:54:14.720Z,8.50
2022-10-22T07:56:44.801Z,7.53
2022-10-22T07:59:14.652Z,7.22
2022-10-22T08:01:42.466Z,7.00
2022-10-22T08:04:13.589Z,6.53
2022-10-22T08:06:44.578Z,6.40
2022-10-22T08:09:15.580Z,6.97
2022-10-22T08:11:45.390Z,6.37
2022-10-22T08:14:13.228Z,7.07
2022-10-22T08:16:41.024Z,7.00
2022-10-22T08:19:08.881Z,6.80
2022-10-22T08:21:38.015Z,5.70
2022-10-22T08:24:08.900Z,8.23
2022-10-22T08:26:36.771Z,7.17
2022-10-22T08:29:05.291Z,14.73
2022-10-22T08:31:35.777Z,14.33
2022-10-22T08:36:31.162Z,6.70
2022-10-22T08:39:02.294Z,9.30
2022-10-22T08:41:32.076Z,8.80
2022-10-22T08:44:32.117Z,8.50
2022-10-22T08:47:22.588Z,10.45
2022-10-22T08:52:24.897Z,13.53
2022-10-22T08:54:58.839Z,10.73
2022-10-22T08:57:43.859Z,12.37
2022-10-22T09:00:17.284Z,8.20
2022-10-22T09:02:59.719Z,9.27
2022-10-22T09:05:39.721Z,8.73
2022-10-22T09:08:11.924Z,7.18
2022-10-22T09:10:47.112Z,6.90
2022-10-22T09:13:18.606Z,11.83
2022-10-22T09:15:47.477Z,6.13
2022-10-22T09:18:31.127Z,5.30
2022-10-22T09:21:03.912Z,7.30
2022-10-22T09:23:38.971Z,6.27
2022-10-22T09:26:14.835Z,13.23
2022-10-22T09:28:42.933Z,8.27
2022-10-22T09:31:14.959Z,10.07
2022-10-22T09:33:45.641Z,10.73
2022-10-22T09:36:18.251Z,9.57
2022-10-22T09:38:51.007Z,8.10
2022-10-22T09:41:26.140Z,8.93
2022-10-22T09:43:55.792Z,10.00
2022-10-22T09:46:28.163Z,12.45
2022-10-22T09:49:05.423Z,9.03
2022-10-22T09:51:49.389Z,10.07
2022-10-22T09:54:21.379Z,10.40
2022-10-22T09:56:55.651Z,9.53
2022-10-22T09:59:30.430Z,9.30
2022-10-22T10:02:13.526Z,9.53
2022-10-22T10:04:52.862Z,6.05
2022-10-22T10:07:22.730Z,9.33
2022-10-22T10:09:51.494Z,6.20
2022-10-22T10:12:36.016Z,6.80
2022-10-22T10:15:14.062Z,16.83
2022-10-22T10:17:48.157Z,9.40
2022-10-22T10:20:29.843Z,9.40
2022-10-22T10:23:06.606Z,9.93
2022-10-22T10:25:49.142Z,10.17
2022-10-22T10:28:47.154Z,10.57
2022-10-22T10:31:21.642Z,8.27
2022-10-22T10:34:04.248Z,9.77
2022-10-22T10:36:40.939Z,8.60
2022-10-22T10:39:17.985Z,9.40
2022-10-22T10:41:53.982Z,11.10
2022-10-22T10:44:40.931Z,13.70
2022-10-22T10:47:21.819Z,10.87
2022-10-22T10:49:55.234Z,12.40
2022-10-22T10:52:37.891Z,11.93
2022-10-22T10:55:15.234Z,10.70
2022-10-22T10:58:04.250Z,9.47
2022-10-22T11:00:41.073Z,10.47
2022-10-22T11:03:35.817Z,12.27
2022-10-22T11:06:08.813Z,14.80
2022-10-22T11:08:41.920Z,15.47
2022-10-22T11:11:19.254Z,11.67
2022-10-22T11:13:53.487Z,13.63
2022-10-22T11:16:31.822Z,13.87
2022-10-22T11:19:06.219Z,12.10
2022-10-22T11:21:42.015Z,11.60
2022-10-22T11:24:21.350Z,10.37
2022-10-22T11:26:54.213Z,8.93
2022-10-22T11:29:32.133Z,12.83
2022-10-22T11:32:05.983Z,10.60
2022-10-22T11:34:40.296Z,12.77
2022-10-22T11:37:11.144Z,9.77
2022-10-22T11:39:46.050Z,12.07
2022-10-22T11:42:23.030Z,12.73
2022-10-22T11:45:02.008Z,11.90
2022-10-22T11:47:36.384Z,13.43
2022-10-22T11:50:22.767Z,14.20
2022-10-22T11:53:00.200Z,14.40
2022-10-22T11:55:46.017Z,14.93
2022-10-22T11:58:37.042Z,15.93
2022-10-22T12:01:26.279Z,12.17
2022-10-22T12:04:23.358Z,13.33
2022-10-22T12:07:01.766Z,13.70
2022-10-22T12:09:32.915Z,10.67
2022-10-22T12:12:15.771Z,11.67
2022-10-22T12:14:57.709Z,13.70
2022-10-22T12:17:29.945Z,12.70
2022-10-22T12:20:05.940Z,11.60
2022-10-22T12:22:37.521Z,13.57
2022-10-22T12:25:18.926Z,12.17
2022-10-22T12:27:53.353Z,10.80
2022-10-22T12:30:25.904Z,11.57
2022-10-22T12:32:56.243Z,14.67
2022-10-22T12:35:27.245Z,18.67
2022-10-22T12:38:01.495Z,13.00
2022-10-22T12:40:35.624Z,12.40
2022-10-22T12:43:12.274Z,12.80
2022-10-22T12:45:43.086Z,13.47
2022-10-22T12:48:18.243Z,17.43
2022-10-22T12:50:52.112Z,11.30
2022-10-22T12:53:25.025Z,14.23
2022-10-22T12:55:55.079Z,13.87
2022-10-22T12:58:30.402Z,15.57
2022-10-22T13:01:02.327Z,14.27
2022-10-22T13:03:33.374Z,11.63
2022-10-22T13:06:25.400Z,11.57
2022-10-22T13:09:17.509Z,12.77
2022-10-22T13:11:53.700Z,11.07
2022-10-22T13:14:29.048Z,11.97
2022-10-22T13:17:23.949Z,11.50
2022-10-22T13:20:05.269Z,12.43
2022-10-22T13:22:36.614Z,13.90
2022-10-22T13:25:23.764Z,15.20
2022-10-22T13:27:56.320Z,10.90
2022-10-22T13:30:26.241Z,13.10
2022-10-22T13:32:56.356Z,14.85
2022-10-22T13:35:29.633Z,11.10
2022-10-22T13:37:59.430Z,11.97
2022-10-22T13:40:30.046Z,13.70
2022-10-22T13:42:57.886Z,13.37
2022-10-22T13:45:25.730Z,11.77
2022-10-22T13:47:56.593Z,12.43
2022-10-22T13:50:24.547Z,16.27
2022-10-22T13:52:54.303Z,13.07
2022-10-22T13:55:26.146Z,11.63
2022-10-22T13:57:56.206Z,14.93
2022-10-22T14:00:24.845Z,12.98
2022-10-22T14:02:58.106Z,15.70
2022-10-22T14:05:25.949Z,14.77
2022-10-22T14:07:54.467Z,14.00
2022-10-22T14:10:27.414Z,14.73
2022-10-22T14:12:55.389Z,14.63
2022-10-22T14:15:25.115Z,14.70
2022-10-22T14:17:57.326Z,16.35
2022-10-22T14:20:27.672Z,15.50
2022-10-22T14:22:55.798Z,17.85
2022-10-22T14:25:28.967Z,15.00
2022-10-22T14:27:56.712Z,13.87
2022-10-22T14:30:29.651Z,14.67
2022-10-22T14:33:01.089Z,18.57
2022-10-22T14:35:31.215Z,13.77
2022-10-22T14:37:58.982Z,17.77
2022-10-22T14:40:30.020Z,18.00
2022-10-22T14:43:00.048Z,18.33
2022-10-22T14:45:28.286Z,17.58
2022-10-22T14:47:58.159Z,15.27
2022-10-22T14:50:28.156Z,16.17
2022-10-22T14:52:57.254Z,15.90
2022-10-22T14:55:28.913Z,15.03
2022-10-22T14:57:58.249Z,17.63
2022-10-22T15:00:26.068Z,19.97
2022-10-22T15:02:55.891Z,17.77
2022-10-22T15:05:24.160Z,17.83
2022-10-22T15:07:51.906Z,20.03
2022-10-22T15:10:19.819Z,22.27
2022-10-22T15:12:49.864Z,20.57
2022-10-22T15:15:21.955Z,20.45
2022-10-22T15:17:51.299Z,23.57
2022-10-22T15:20:19.023Z,21.77
2022-10-22T15:22:46.821Z,21.53
2022-10-22T15:25:15.787Z,18.30
2022-10-22T15:27:47.596Z,19.13
2022-10-22T15:30:20.810Z,18.63
2022-10-22T15:32:48.678Z,21.77
2022-10-22T15:35:16.740Z,25.30
2022-10-22T15:37:44.652Z,22.47
2022-10-22T15:40:13.147Z,19.90
2022-10-22T15:42:41.190Z,21.80
2022-10-22T15:45:10.508Z,21.17
2022-10-22T15:47:39.921Z,22.70
2022-10-22T15:50:10.577Z,22.55
2022-10-22T15:52:40.308Z,22.48
2022-10-22T15:55:10.571Z,25.48
2022-10-22T15:57:43.038Z,25.52
2022-10-22T16:00:12.282Z,21.83
2022-10-22T16:02:43.633Z,22.47
2022-10-22T16:05:11.796Z,23.50
2022-10-22T16:07:39.987Z,22.80
2022-10-22T16:10:09.377Z,25.60
2022-10-22T16:12:40.984Z,28.67
2022-10-22T16:15:10.243Z,34.10
2022-10-22T16:17:37.979Z,31.70
2022-10-22T16:22:41.454Z,39.63
2022-10-22T16:25:09.961Z,38.30
2022-10-22T16:27:39.809Z,42.03
2022-10-22T16:30:08.190Z,43.15
2022-10-22T16:32:36.159Z,43.73
2022-10-22T16:35:06.104Z,40.27
2022-10-22T16:37:35.557Z,39.08
2022-10-22T16:40:08.222Z,37.43
2022-10-22T16:42:38.195Z,35.23
2022-10-22T16:45:09.058Z,39.10
2022-10-22T16:47:36.939Z,43.40
2022-10-22T16:50:06.928Z,44.53
2022-10-22T16:52:38.391Z,42.10
2022-10-22T16:55:06.966Z,42.80
2022-10-22T16:57:37.833Z,43.10
2022-10-22T17:00:06.765Z,48.70
2022-10-22T17:02:35.278Z,46.63
2022-10-22T17:05:03.244Z,42.60
2022-10-22T17:08:20.558Z,45.20
2022-10-22T17:10:49.805Z,41.73
2022-10-22T17:13:17.773Z,50.63
2022-10-22T17:15:45.618Z,45.30
2022-10-22T17:18:13.504Z,47.03
2022-10-22T17:20:43.996Z,50.33
2022-10-22T17:25:45.198Z,53.70
2022-10-22T17:28:14.824Z,49.17
2022-10-22T17:30:43.035Z,47.63
2022-10-22T17:33:13.080Z,55.57
2022-10-22T17:35:41.601Z,52.53
2022-10-22T17:38:09.641Z,54.00
2022-10-22T17:40:41.179Z,60.57
2022-10-22T17:43:11.172Z,60.20
2022-10-22T17:45:40.415Z,53.20
2022-10-22T17:48:08.347Z,58.70
2022-10-22T17:50:36.292Z,56.67
2022-10-22T17:53:04.320Z,57.73
2022-10-22T17:55:34.786Z,59.97
2022-10-22T18:00:33.458Z,70.40
2022-10-22T18:03:04.767Z,67.50
2022-10-22T18:05:34.454Z,74.83
2022-10-22T18:08:06.951Z,80.07
2022-10-22T18:10:42.303Z,65.03
2022-10-22T18:13:10.405Z,88.83
2022-10-22T18:15:38.376Z,66.23
2022-10-22T18:18:08.073Z,71.20
2022-10-22T18:20:36.116Z,81.95
2022-10-22T18:23:04.343Z,74.97
2022-10-22T18:25:32.766Z,66.17
2022-10-22T18:28:00.800Z,75.00
2022-10-22T18:30:28.602Z,80.50
2022-10-22T18:32:56.585Z,69.87
2022-10-22T18:35:26.122Z,66.90
2022-10-22T18:37:54.526Z,73.38
2022-10-22T18:40:24.235Z,83.60
2022-10-22T18:42:52.135Z,78.63
2022-10-22T18:45:20.234Z,70.20
2022-10-22T18:47:52.188Z,73.60
2022-10-22T18:50:21.932Z,76.60
2022-10-22T18:52:51.803Z,67.78
2022-10-22T18:55:25.994Z,70.88
2022-10-22T18:57:56.443Z,96.77
2022-10-22T19:02:56.351Z,84.17
2022-10-22T19:05:24.602Z,97.87
2022-10-22T19:07:56.052Z,96.97
2022-10-22T19:10:23.994Z,81.00
2022-10-22T19:12:52.017Z,94.67
2022-10-22T19:15:21.427Z,82.17
2022-10-22T19:17:49.406Z,102.47
2022-10-22T19:20:19.837Z,80.70
2022-10-22T19:22:53.657Z,83.85
2022-10-22T19:25:26.769Z,81.50
2022-10-22T19:27:57.447Z,79.67
2022-10-22T19:30:25.512Z,59.47
2022-10-22T19:32:54.299Z,76.03
2022-10-22T19:35:22.610Z,72.33
2022-10-22T19:37:53.255Z,65.47
2022-10-22T19:40:27.464Z,79.33
2022-10-22T19:42:57.219Z,74.30
2022-10-22T19:45:25.137Z,72.07
2022-10-22T19:47:55.446Z,76.57
2022-10-22T19:50:25.935Z,67.35
2022-10-22T19:55:26.256Z,69.07
2022-10-22T19:57:54.270Z,84.80
2022-10-22T20:00:26.486Z,83.93
2022-10-22T20:02:56.849Z,78.03
2022-10-22T20:05:24.876Z,84.28
2022-10-22T20:07:57.478Z,60.83
2022-10-22T20:10:25.301Z,80.57
2022-10-22T20:12:53.372Z,45.57
2022-10-22T20:15:26.866Z,44.93
2022-10-22T20:17:54.762Z,36.57
2022-10-22T20:20:26.275Z,38.87
2022-10-22T20:23:01.262Z,35.67
2022-10-22T20:25:29.303Z,31.77
2022-10-22T20:27:57.315Z,29.90
2022-10-22T20:30:31.476Z,28.13
2022-10-22T20:32:59.333Z,25.13
2022-10-22T20:35:27.181Z,28.07
2022-10-22T20:38:01.451Z,26.47
2022-10-22T20:40:30.736Z,24.87
2022-10-22T20:43:00.808Z,23.53
2022-10-22T20:45:32.608Z,23.20
2022-10-22T20:48:03.478Z,20.53
2022-10-22T20:50:35.818Z,20.03
2022-10-22T20:53:03.734Z,18.03
2022-10-22T20:55:31.543Z,15.87
2022-10-22T20:58:01.470Z,13.87
2022-10-22T21:00:35.741Z,13.88
2022-10-22T21:03:03.577Z,12.43
2022-10-22T21:05:31.467Z,13.03
2022-10-22T21:07:59.564Z,13.20
2022-10-22T21:10:32.260Z,11.47
2022-10-22T21:13:00.535Z,13.53
2022-10-22T21:15:30.089Z,11.93
2022-10-22T21:17:57.872Z,11.17
2022-10-22T21:20:25.939Z,9.57
2022-10-22T21:22:53.854Z,11.10
2022-10-22T21:25:21.651Z,11.73
2022-10-22T21:27:51.734Z,11.67
2022-10-22T21:30:21.560Z,10.52
2022-10-22T21:32:51.783Z,11.50
2022-10-22T21:35:21.770Z,11.55
2022-10-22T21:37:51.504Z,13.45
2022-10-22T21:40:19.329Z,8.68
2022-10-22T21:42:50.924Z,11.57
2022-10-22T21:45:22.430Z,12.27
2022-10-22T21:47:53.731Z,10.80
2022-10-22T21:50:21.665Z,12.80
2022-10-22T21:52:49.499Z,13.63
2022-10-22T21:55:21.754Z,13.70
2022-10-22T21:57:51.398Z,12.77
2022-10-22T22:00:22.215Z,12.45
2022-10-22T22:02:53.345Z,13.70
2022-10-22T22:05:21.807Z,11.70
2022-10-22T22:07:49.588Z,11.17
2022-10-22T22:10:21.551Z,10.77
2022-10-22T22:12:49.350Z,10.17
2022-10-22T22:15:17.504Z,10.30
2022-10-22T22:17:49.792Z,11.97
2022-10-22T22:20:19.115Z,10.93
2022-10-22T22:22:46.911Z,11.10
2022-10-22T22:25:19.406Z,8.57
2022-10-22T22:27:47.216Z,9.90
2022-10-22T22:30:15.641Z,10.53
2022-10-22T22:32:47.461Z,8.77
2022-10-22T22:35:15.477Z,10.90
2022-10-22T22:37:44.677Z,10.27
2022-10-22T22:40:16.851Z,11.40
2022-10-22T22:42:44.816Z,9.97
2022-10-22T22:45:12.601Z,9.67
2022-10-22T22:47:44.858Z,9.13
2022-10-22T22:50:12.795Z,9.80
2022-10-22T22:52:40.988Z,8.60
2022-10-22T22:55:14.710Z,10.80
2022-10-22T22:57:42.541Z,9.63
2022-10-22T23:00:11.482Z,9.57
2022-10-22T23:02:44.304Z,9.27
2022-10-22T23:05:12.414Z,9.60
2022-10-22T23:07:40.190Z,8.93
2022-10-22T23:10:13.860Z,11.43
2022-10-22T23:12:41.954Z,9.53
2022-10-22T23:15:10.630Z,9.30
2022-10-22T23:17:40.497Z,7.80
2022-10-22T23:20:11.179Z,13.43
2022-10-22T23:22:39.161Z,10.63
2022-10-22T23:25:09.964Z,9.87
2022-10-22T23:27:42.831Z,13.33
2022-10-22T23:30:11.935Z,11.00
2022-10-22T23:32:39.775Z,11.07
2022-10-22T23:35:12.568Z,12.80
2022-10-22T23:37:40.756Z,13.97
2022-10-22T23:40:09.860Z,11.83
2022-10-22T23:42:46.737Z,11.73
2022-10-22T23:45:14.605Z,11.93
2022-10-22T23:47:44.870Z,11.63
2022-10-22T23:50:14.961Z,13.70
2022-10-22T23:52:43.082Z,12.50
2022-10-22T23:55:13.488Z,13.20
2022-10-22T23:57:44.568Z,13.05
